createdAt,value
2022-08-25T00:02:03.020Z,25.21
2022-08-25T00:04:30.275Z,25.31
2022-08-25T00:07:02.143Z,25.16
2022-08-25T00:09:30.677Z,25.31
2022-08-25T00:11:57.484Z,25.27
2022-08-25T00:14:37.153Z,25.34
2022-08-25T00:17:04.780Z,25.33
2022-08-25T00:19:35.002Z,25.35
2022-08-25T00:22:02.690Z,25.29
2022-08-25T00:24:29.943Z,25.29
2022-08-25T00:26:58.769Z,25.26
2022-08-25T00:29:26.799Z,25.21
2022-08-25T00:31:55.057Z,25.11
2022-08-25T00:34:30.137Z,25.09
2022-08-25T00:36:57.016Z,24.99
2022-08-25T00:39:24.964Z,25.06
2022-08-25T00:41:53.966Z,25.13
2022-08-25T00:44:20.798Z,25.15
2022-08-25T00:46:54.551Z,25.14
2022-08-25T00:49:28.359Z,25.09
2022-08-25T00:52:25.866Z,25.11
2022-08-25T00:55:03.017Z,25.15
2022-08-25T00:57:37.830Z,25.13
2022-08-25T01:00:14.475Z,24.81
2022-08-25T01:02:41.606Z,25.00
2022-08-25T01:05:08.822Z,25.10
2022-08-25T01:07:36.513Z,24.88
2022-08-25T01:10:04.832Z,25.07
2022-08-25T01:12:31.466Z,25.04
2022-08-25T01:14:58.802Z,24.98
2022-08-25T01:17:28.167Z,24.91
2022-08-25T01:19:55.873Z,24.88
2022-08-25T01:22:22.858Z,24.88
2022-08-25T01:25:27.747Z,24.85
2022-08-25T01:27:54.306Z,24.84
2022-08-25T01:30:21.766Z,24.72
2022-08-25T01:32:48.860Z,24.54
2022-08-25T01:35:15.885Z,24.75
2022-08-25T01:37:42.639Z,24.66
2022-08-25T01:40:09.775Z,24.66
2022-08-25T01:43:07.749Z,24.64
2022-08-25T01:45:35.551Z,24.63
2022-08-25T01:48:02.661Z,24.65
2022-08-25T01:50:29.538Z,24.64
2022-08-25T01:53:19.495Z,24.58
2022-08-25T01:55:51.966Z,24.53
2022-08-25T01:58:40.405Z,24.60
2022-08-25T02:01:10.132Z,24.46
2022-08-25T02:03:42.296Z,24.58
2022-08-25T02:06:12.427Z,24.55
2022-08-25T02:08:39.873Z,24.38
2022-08-25T02:11:11.921Z,24.45
2022-08-25T02:13:40.418Z,24.41
2022-08-25T02:16:08.435Z,23.74
2022-08-25T02:18:35.145Z,24.31
2022-08-25T02:21:02.248Z,24.35
2022-08-25T02:23:28.888Z,24.21
2022-08-25T02:25:57.245Z,24.31
2022-08-25T02:28:24.316Z,24.24
2022-08-25T02:30:53.225Z,24.26
2022-08-25T02:33:26.926Z,24.33
2022-08-25T02:35:57.919Z,24.34
2022-08-25T02:38:25.092Z,24.29
2022-08-25T02:40:52.351Z,24.29
2022-08-25T02:43:19.015Z,24.19
2022-08-25T02:45:45.698Z,24.35
2022-08-25T02:48:12.318Z,24.35
2022-08-25T02:50:39.062Z,24.31
2022-08-25T02:53:05.752Z,24.25
2022-08-25T02:55:34.665Z,24.21
2022-08-25T02:58:01.284Z,24.24
2022-08-25T03:00:27.901Z,24.14
2022-08-25T03:02:54.503Z,24.21
2022-08-25T03:05:21.379Z,24.36
2022-08-25T03:07:48.213Z,23.89
2022-08-25T03:10:18.839Z,23.95
2022-08-25T03:12:45.739Z,24.02
2022-08-25T03:15:18.683Z,24.10
2022-08-25T03:17:46.202Z,23.86
2022-08-25T03:20:13.372Z,23.57
2022-08-25T03:22:40.081Z,24.03
2022-08-25T03:25:25.725Z,23.95
2022-08-25T03:27:52.528Z,23.91
2022-08-25T03:30:20.069Z,23.71
2022-08-25T03:32:46.841Z,23.82
2022-08-25T03:35:13.613Z,23.78
2022-08-25T03:37:40.798Z,23.64
2022-08-25T03:40:13.605Z,23.53
2022-08-25T03:42:45.155Z,23.79
2022-08-25T03:45:14.252Z,23.76
2022-08-25T03:47:41.213Z,23.84
2022-08-25T03:50:10.403Z,23.94
2022-08-25T03:52:42.392Z,23.87
2022-08-25T03:55:11.875Z,23.85
2022-08-25T03:57:38.617Z,23.75
2022-08-25T04:00:08.172Z,23.68
2022-08-25T04:02:34.877Z,23.58
2022-08-25T04:05:01.742Z,23.23
2022-08-25T04:07:28.352Z,23.84
2022-08-25T04:09:56.166Z,23.85
2022-08-25T04:12:23.241Z,23.77
2022-08-25T04:14:50.335Z,23.79
2022-08-25T04:17:17.556Z,23.70
2022-08-25T04:19:44.341Z,23.60
2022-08-25T04:22:11.266Z,23.63
2022-08-25T04:24:39.956Z,23.37
2022-08-25T04:27:06.535Z,23.60
2022-08-25T04:29:33.942Z,23.55
2022-08-25T04:32:00.610Z,23.62
2022-08-25T04:34:30.296Z,23.62
2022-08-25T04:37:03.379Z,23.59
2022-08-25T04:39:29.978Z,23.56
2022-08-25T04:41:56.682Z,23.46
2022-08-25T04:44:23.619Z,23.51
2022-08-25T04:46:50.324Z,23.55
2022-08-25T04:49:16.978Z,23.44
2022-08-25T04:51:43.740Z,23.51
2022-08-25T04:54:13.814Z,23.50
2022-08-25T04:56:41.497Z,23.60
2022-08-25T04:59:11.836Z,23.49
2022-08-25T05:01:39.810Z,23.55
2022-08-25T05:04:08.847Z,23.58
2022-08-25T05:06:41.919Z,23.58
2022-08-25T05:09:09.998Z,23.05
2022-08-25T05:11:37.399Z,23.49
2022-08-25T05:14:04.710Z,23.58
2022-08-25T05:16:31.713Z,23.47
2022-08-25T05:18:58.507Z,23.53
2022-08-25T05:21:28.733Z,23.45
2022-08-25T05:23:57.735Z,23.29
2022-08-25T05:26:26.428Z,23.62
2022-08-25T05:28:55.069Z,23.51
2022-08-25T05:31:23.820Z,23.41
2022-08-25T05:33:51.063Z,23.68
2022-08-25T05:36:20.145Z,23.49
2022-08-25T05:38:47.327Z,23.80
2022-08-25T05:41:16.849Z,23.83
2022-08-25T05:43:45.910Z,23.78
2022-08-25T05:46:13.317Z,23.80
2022-08-25T05:48:40.320Z,23.80
2022-08-25T05:51:10.343Z,23.82
2022-08-25T05:53:39.215Z,23.91
2022-08-25T05:56:06.150Z,23.93
2022-08-25T05:58:32.882Z,23.88
2022-08-25T06:01:19.629Z,23.97
2022-08-25T06:03:47.638Z,23.92
2022-08-25T06:06:15.982Z,24.01
2022-08-25T06:08:44.281Z,23.80
2022-08-25T06:11:12.699Z,24.13
2022-08-25T06:13:39.971Z,24.19
2022-08-25T06:16:07.205Z,24.22
2022-08-25T06:18:33.909Z,24.30
2022-08-25T06:21:08.387Z,24.23
2022-08-25T06:23:35.027Z,24.42
2022-08-25T06:26:01.986Z,24.41
2022-08-25T06:28:28.641Z,24.39
2022-08-25T06:31:00.107Z,24.44
2022-08-25T06:33:26.706Z,24.44
2022-08-25T06:35:56.023Z,24.03
2022-08-25T06:38:23.872Z,24.46
2022-08-25T06:40:52.065Z,24.48
2022-08-25T06:43:22.133Z,24.54
2022-08-25T06:45:48.827Z,24.55
2022-08-25T06:48:15.941Z,24.54
2022-08-25T06:50:43.386Z,24.80
2022-08-25T06:53:10.046Z,24.88
2022-08-25T06:55:36.959Z,24.52
2022-08-25T06:58:05.211Z,25.06
2022-08-25T07:00:33.420Z,24.76
2022-08-25T07:03:01.489Z,25.06
2022-08-25T07:05:40.810Z,25.17
2022-08-25T07:08:11.879Z,25.30
2022-08-25T07:10:39.009Z,25.33
2022-08-25T07:13:05.682Z,24.98
2022-08-25T07:15:32.309Z,25.33
2022-08-25T07:17:59.112Z,25.50
2022-08-25T07:22:53.149Z,25.73
2022-08-25T07:25:19.890Z,25.67
2022-08-25T07:27:46.595Z,25.82
2022-08-25T07:30:13.480Z,26.00
2022-08-25T07:32:43.015Z,26.13
2022-08-25T07:35:18.958Z,26.03
2022-08-25T07:37:58.177Z,26.20
2022-08-25T07:40:31.803Z,26.20
2022-08-25T07:43:01.693Z,25.71
2022-08-25T07:45:31.644Z,26.09
2022-08-25T07:48:01.094Z,26.49
2022-08-25T07:50:29.384Z,25.89
2022-08-25T07:52:57.856Z,26.23
2022-08-25T07:55:27.218Z,26.32
2022-08-25T07:57:57.238Z,26.39
2022-08-25T08:00:27.791Z,26.31
2022-08-25T08:02:54.916Z,26.46
2022-08-25T08:05:24.017Z,26.62
2022-08-25T08:07:51.598Z,26.68
2022-08-25T08:10:47.893Z,26.73
2022-08-25T08:13:07.565Z,26.53
2022-08-25T08:15:35.500Z,26.78
2022-08-25T08:18:03.169Z,26.86
2022-08-25T08:20:42.706Z,26.89
2022-08-25T08:23:11.165Z,26.78
2022-08-25T08:25:37.904Z,27.12
2022-08-25T08:28:04.570Z,27.11
2022-08-25T08:30:36.592Z,26.96
2022-08-25T08:33:10.026Z,27.14
2022-08-25T08:35:38.586Z,26.97
2022-08-25T08:38:13.135Z,27.23
2022-08-25T08:41:13.802Z,26.71
2022-08-25T08:43:43.076Z,27.02
2022-08-25T08:46:10.015Z,27.37
2022-08-25T08:48:59.068Z,27.30
2022-08-25T08:51:36.611Z,27.38
2022-08-25T08:54:20.523Z,27.47
2022-08-25T08:56:55.243Z,27.26
2022-08-25T08:59:30.040Z,27.30
2022-08-25T09:02:04.064Z,27.69
2022-08-25T09:04:57.999Z,27.80
2022-08-25T09:07:32.956Z,27.82
2022-08-25T09:09:59.811Z,27.56
2022-08-25T09:12:34.204Z,27.97
2022-08-25T09:15:00.881Z,27.15
2022-08-25T09:17:54.695Z,28.20
2022-08-25T09:20:40.486Z,28.26
2022-08-25T09:23:31.667Z,28.38
2022-08-25T09:26:27.411Z,28.37
2022-08-25T09:29:06.362Z,28.14
2022-08-25T09:31:43.339Z,28.66
2022-08-25T09:34:21.456Z,28.80
2022-08-25T09:36:52.822Z,28.59
2022-08-25T09:39:21.132Z,29.10
2022-08-25T09:41:57.396Z,29.21
2022-08-25T09:44:42.345Z,29.38
2022-08-25T09:47:18.319Z,29.50
2022-08-25T09:49:51.101Z,29.19
2022-08-25T09:52:32.820Z,29.85
2022-08-25T09:55:16.313Z,29.85
2022-08-25T09:57:42.876Z,29.78
2022-08-25T10:00:34.006Z,30.21
2022-08-25T10:03:24.842Z,30.16
2022-08-25T10:06:07.816Z,29.60
2022-08-25T10:08:45.707Z,30.55
2022-08-25T10:11:15.371Z,30.70
2022-08-25T10:14:00.667Z,30.98
2022-08-25T10:16:36.098Z,31.00
2022-08-25T10:19:08.111Z,31.09
2022-08-25T10:21:37.100Z,31.15
2022-08-25T10:24:05.965Z,31.09
2022-08-25T10:26:52.340Z,31.32
2022-08-25T10:29:45.829Z,31.61
2022-08-25T10:32:18.292Z,31.88
2022-08-25T10:34:51.451Z,32.00
2022-08-25T10:37:53.449Z,31.80
2022-08-25T10:40:45.103Z,32.35
2022-08-25T10:43:49.808Z,32.27
2022-08-25T10:46:36.785Z,32.55
2022-08-25T10:49:03.380Z,32.71
2022-08-25T10:51:41.535Z,32.69
2022-08-25T10:55:12.807Z,32.62
2022-08-25T10:57:46.520Z,32.77
2022-08-25T11:00:17.963Z,33.00
2022-08-25T11:02:47.348Z,33.22
2022-08-25T11:05:28.290Z,33.38
2022-08-25T11:08:06.752Z,33.26
2022-08-25T11:11:09.452Z,33.51
2022-08-25T11:13:47.663Z,33.50
2022-08-25T11:16:26.939Z,33.46
2022-08-25T11:19:17.084Z,33.55
2022-08-25T11:21:46.466Z,33.67
2022-08-25T11:24:16.095Z,33.73
2022-08-25T11:26:51.719Z,33.52
2022-08-25T11:29:34.191Z,33.92
2022-08-25T11:32:02.020Z,33.44
2022-08-25T11:34:33.240Z,33.27
2022-08-25T11:37:11.124Z,34.20
2022-08-25T11:40:00.253Z,34.34
2022-08-25T11:42:36.120Z,34.45
2022-08-25T11:45:28.918Z,34.40
2022-08-25T11:48:49.963Z,34.80
2022-08-25T11:51:36.514Z,35.16
2022-08-25T11:54:15.370Z,35.31
2022-08-25T11:56:42.193Z,35.43
2022-08-25T11:59:10.001Z,35.54
2022-08-25T12:01:40.517Z,35.68
2022-08-25T12:04:31.241Z,35.47
2022-08-25T12:07:07.322Z,35.60
2022-08-25T12:09:55.089Z,35.15
2022-08-25T12:12:32.529Z,34.94
2022-08-25T12:15:21.147Z,34.99
2022-08-25T12:18:10.647Z,35.26
2022-08-25T12:20:53.746Z,35.05
2022-08-25T12:23:32.376Z,35.78
2022-08-25T12:26:20.891Z,36.05
2022-08-25T12:28:59.817Z,36.25
2022-08-25T12:31:43.228Z,36.44
2022-08-25T12:34:37.643Z,36.69
2022-08-25T12:37:13.324Z,36.66
2022-08-25T12:39:51.138Z,36.84
2022-08-25T12:42:28.638Z,36.99
2022-08-25T12:45:31.424Z,37.40
2022-08-25T12:48:27.944Z,37.84
2022-08-25T12:51:03.365Z,37.69
2022-08-25T12:53:38.892Z,37.78
2022-08-25T12:56:05.505Z,37.46
2022-08-25T12:58:59.883Z,38.00
2022-08-25T13:01:36.728Z,38.16
2022-08-25T13:04:22.705Z,38.27
2022-08-25T13:07:23.196Z,38.21
2022-08-25T13:10:15.850Z,37.51
2022-08-25T13:13:06.192Z,37.07
2022-08-25T13:15:41.096Z,36.68
2022-08-25T13:18:27.665Z,35.94
2022-08-25T13:21:29.111Z,35.81
2022-08-25T13:24:01.375Z,35.68
2022-08-25T13:26:48.440Z,34.96
2022-08-25T13:29:26.295Z,35.22
2022-08-25T13:31:59.926Z,34.88
2022-08-25T13:34:34.744Z,35.02
2022-08-25T13:37:29.767Z,34.90
2022-08-25T13:40:17.926Z,34.85
2022-08-25T13:42:54.403Z,34.67
2022-08-25T13:45:29.997Z,34.60
2022-08-25T13:47:59.423Z,34.13
2022-08-25T13:50:26.333Z,33.49
2022-08-25T13:52:56.149Z,33.75
2022-08-25T13:55:27.588Z,34.01
2022-08-25T13:57:59.430Z,34.17
2022-08-25T14:00:32.433Z,33.59
2022-08-25T14:03:02.151Z,34.17
2022-08-25T14:05:42.720Z,33.99
2022-08-25T14:08:31.966Z,34.09
2022-08-25T14:11:29.711Z,33.90
2022-08-25T14:14:12.623Z,34.04
2022-08-25T14:16:47.305Z,33.99
2022-08-25T14:19:21.509Z,32.67
2022-08-25T14:21:49.704Z,33.66
2022-08-25T14:24:23.964Z,33.53
2022-08-25T14:26:54.155Z,33.47
2022-08-25T14:29:22.303Z,33.44
2022-08-25T14:31:50.024Z,33.25
2022-08-25T14:34:21.541Z,32.65
2022-08-25T14:36:48.956Z,33.57
2022-08-25T14:39:16.163Z,33.61
2022-08-25T14:41:47.420Z,33.48
2022-08-25T14:44:20.273Z,33.38
2022-08-25T14:46:52.798Z,33.26
2022-08-25T14:49:25.434Z,33.29
2022-08-25T14:51:52.319Z,33.12
2022-08-25T14:54:25.975Z,33.40
2022-08-25T14:56:53.615Z,32.97
2022-08-25T14:59:20.356Z,33.23
2022-08-25T15:01:47.542Z,32.77
2022-08-25T15:04:23.436Z,33.03
2022-08-25T15:06:56.304Z,32.67
2022-08-25T15:09:23.252Z,32.34
2022-08-25T15:11:54.593Z,33.20
2022-08-25T15:14:28.909Z,33.04
2022-08-25T15:16:59.991Z,33.00
2022-08-25T15:19:27.571Z,33.06
2022-08-25T15:21:58.248Z,32.81
2022-08-25T15:24:27.339Z,32.75
2022-08-25T15:27:03.955Z,32.84
2022-08-25T15:29:34.773Z,32.99
2022-08-25T15:32:05.236Z,32.85
2022-08-25T15:34:32.260Z,32.93
2022-08-25T15:37:07.806Z,32.64
2022-08-25T15:39:35.197Z,32.90
2022-08-25T15:42:02.656Z,32.65
2022-08-25T15:44:33.861Z,32.24
2022-08-25T15:47:02.931Z,32.78
2022-08-25T15:49:31.403Z,32.67
2022-08-25T15:51:58.351Z,32.56
2022-08-25T15:54:26.802Z,32.61
2022-08-25T15:56:55.041Z,32.70
2022-08-25T15:59:21.898Z,32.50
2022-08-25T16:01:48.928Z,32.64
2022-08-25T16:04:15.791Z,32.62
2022-08-25T16:06:44.601Z,32.54
2022-08-25T16:09:12.059Z,32.27
2022-08-25T16:11:39.047Z,32.49
2022-08-25T16:14:06.165Z,32.20
2022-08-25T16:16:33.369Z,31.96
2022-08-25T16:19:00.532Z,32.46
2022-08-25T16:21:31.176Z,32.32
2022-08-25T16:24:04.411Z,32.28
2022-08-25T16:26:36.438Z,31.95
2022-08-25T16:29:06.430Z,31.45
2022-08-25T16:31:33.426Z,32.24
2022-08-25T16:34:01.572Z,32.13
2022-08-25T16:36:28.551Z,31.93
2022-08-25T16:38:57.453Z,32.32
2022-08-25T16:41:34.114Z,32.23
2022-08-25T16:44:10.983Z,31.98
2022-08-25T16:46:40.638Z,32.15
2022-08-25T16:49:07.833Z,32.11
2022-08-25T16:51:34.575Z,32.03
2022-08-25T16:54:22.256Z,31.51
2022-08-25T16:56:54.895Z,32.01
2022-08-25T16:59:22.266Z,31.45
2022-08-25T17:01:50.804Z,31.42
2022-08-25T17:04:17.574Z,31.99
2022-08-25T17:06:51.819Z,31.94
2022-08-25T17:09:23.809Z,31.80
2022-08-25T17:11:54.284Z,31.93
2022-08-25T17:14:21.992Z,31.79
2022-08-25T17:16:51.173Z,31.76
2022-08-25T17:19:18.632Z,31.63
2022-08-25T17:21:49.984Z,31.81
2022-08-25T17:24:17.209Z,31.89
2022-08-25T17:26:49.866Z,31.82
2022-08-25T17:29:19.601Z,31.60
2022-08-25T17:31:48.402Z,31.75
2022-08-25T17:34:16.141Z,31.66
2022-08-25T17:36:44.054Z,31.59
2022-08-25T17:39:13.075Z,31.53
2022-08-25T17:41:42.035Z,31.46
2022-08-25T17:44:08.671Z,31.46
2022-08-25T17:46:38.452Z,31.28
2022-08-25T17:49:09.112Z,31.14
2022-08-25T17:51:36.551Z,31.34
2022-08-25T17:54:03.144Z,31.22
2022-08-25T17:56:30.160Z,31.24
2022-08-25T17:58:57.233Z,31.16
2022-08-25T18:01:30.583Z,31.26
2022-08-25T18:03:59.242Z,31.15
2022-08-25T18:06:29.571Z,31.03
2022-08-25T18:08:59.977Z,30.58
2022-08-25T18:11:27.988Z,31.11
2022-08-25T18:13:55.036Z,30.93
2022-08-25T18:16:22.708Z,31.06
2022-08-25T18:18:49.435Z,30.99
2022-08-25T18:21:19.198Z,30.62
2022-08-25T18:23:46.656Z,30.87
2022-08-25T18:26:15.327Z,30.86
2022-08-25T18:28:43.995Z,30.90
2022-08-25T18:31:13.196Z,30.85
2022-08-25T18:33:44.612Z,30.74
2022-08-25T18:36:12.533Z,30.84
2022-08-25T18:38:59.938Z,30.85
2022-08-25T18:41:32.778Z,30.83
2022-08-25T18:43:59.330Z,30.87
2022-08-25T18:46:26.097Z,30.71
2022-08-25T18:48:53.276Z,30.66
2022-08-25T18:51:23.266Z,30.58
2022-08-25T18:53:54.725Z,30.32
2022-08-25T18:56:26.740Z,30.41
2022-08-25T18:58:53.403Z,30.38
2022-08-25T19:01:21.350Z,30.44
2022-08-25T19:03:48.363Z,30.42
2022-08-25T19:06:15.653Z,30.31
2022-08-25T19:08:42.371Z,30.38
2022-08-25T19:11:10.113Z,29.37
2022-08-25T19:13:37.623Z,30.27
2022-08-25T19:16:30.050Z,30.21
2022-08-25T19:18:57.054Z,30.24
2022-08-25T19:21:25.244Z,30.26
2022-08-25T19:23:52.337Z,30.20
2022-08-25T19:26:19.549Z,30.17
2022-08-25T19:28:48.857Z,29.93
2022-08-25T19:31:20.353Z,30.17
2022-08-25T19:33:49.218Z,30.09
2022-08-25T19:36:18.494Z,30.01
2022-08-25T19:38:48.455Z,29.96
2022-08-25T19:41:19.416Z,29.95
2022-08-25T19:43:55.226Z,29.63
2022-08-25T19:46:23.361Z,28.86
2022-08-25T19:48:50.471Z,29.04
2022-08-25T19:51:19.395Z,29.74
2022-08-25T19:53:51.171Z,29.51
2022-08-25T19:56:20.752Z,29.70
2022-08-25T19:58:47.834Z,29.52
2022-08-25T20:01:18.365Z,29.65
2022-08-25T20:03:45.280Z,29.67
2022-08-25T20:06:12.349Z,29.65
2022-08-25T20:08:43.180Z,29.24
2022-08-25T20:11:10.814Z,29.61
2022-08-25T20:13:37.551Z,29.48
2022-08-25T20:16:05.595Z,29.45
2022-08-25T20:18:32.562Z,29.32
2022-08-25T20:20:59.297Z,29.32
2022-08-25T20:23:44.582Z,29.28
2022-08-25T20:26:11.312Z,28.94
2022-08-25T20:28:42.241Z,29.09
2022-08-25T20:31:09.407Z,29.21
2022-08-25T20:33:36.240Z,29.22
2022-08-25T20:36:04.839Z,29.03
2022-08-25T20:38:32.114Z,28.84
2022-08-25T20:41:00.751Z,29.14
2022-08-25T20:43:30.808Z,29.12
2022-08-25T20:46:01.798Z,29.08
2022-08-25T20:48:28.472Z,28.96
2022-08-25T20:50:57.774Z,28.13
2022-08-25T20:53:25.769Z,28.71
2022-08-25T20:55:56.185Z,28.94
2022-08-25T20:58:26.566Z,28.73
2022-08-25T21:00:53.992Z,28.84
2022-08-25T21:03:21.016Z,28.89
2022-08-25T21:05:54.091Z,28.81
2022-08-25T21:08:21.272Z,28.51
2022-08-25T21:10:51.885Z,28.70
2022-08-25T21:13:21.267Z,28.74
2022-08-25T21:15:50.429Z,28.65
2022-08-25T21:18:17.059Z,28.56
2022-08-25T21:20:47.126Z,28.40
2022-08-25T21:23:14.887Z,28.05
2022-08-25T21:25:44.607Z,28.29
2022-08-25T21:28:11.584Z,28.25
2022-08-25T21:30:44.715Z,28.07
2022-08-25T21:33:16.450Z,27.86
2022-08-25T21:35:43.393Z,28.36
2022-08-25T21:38:10.031Z,28.05
2022-08-25T21:40:37.229Z,28.38
2022-08-25T21:43:07.379Z,28.38
2022-08-25T21:45:46.141Z,28.34
2022-08-25T21:48:13.758Z,28.00
2022-08-25T21:50:41.134Z,28.27
2022-08-25T21:53:09.657Z,28.25
2022-08-25T21:55:41.899Z,28.20
2022-08-25T21:58:08.688Z,28.23
2022-08-25T22:00:36.084Z,28.12
2022-08-25T22:03:02.774Z,28.18
2022-08-25T22:05:29.456Z,28.07
2022-08-25T22:07:56.037Z,27.99
2022-08-25T22:10:22.775Z,27.91
2022-08-25T22:13:01.433Z,27.52
2022-08-25T22:15:29.450Z,27.75
2022-08-25T22:17:56.040Z,27.75
2022-08-25T22:20:25.094Z,27.71
2022-08-25T22:22:56.500Z,27.70
2022-08-25T22:25:23.679Z,27.43
2022-08-25T22:27:56.430Z,27.52
2022-08-25T22:30:29.668Z,27.57
2022-08-25T22:33:00.483Z,27.67
2022-08-25T22:35:28.086Z,27.63
2022-08-25T22:37:54.728Z,27.33
2022-08-25T22:40:21.450Z,27.31
2022-08-25T22:42:48.543Z,27.36
2022-08-25T22:45:15.515Z,27.53
2022-08-25T22:47:42.313Z,27.60
2022-08-25T22:50:09.396Z,27.56
2022-08-25T22:52:36.114Z,27.48
2022-08-25T22:55:03.130Z,27.54
2022-08-25T22:57:29.738Z,27.58
2022-08-25T22:59:56.740Z,27.41
2022-08-25T23:02:23.433Z,27.58
2022-08-25T23:04:50.084Z,27.50
2022-08-25T23:07:16.942Z,27.54
2022-08-25T23:09:44.584Z,27.42
2022-08-25T23:12:11.725Z,27.44
2022-08-25T23:14:42.259Z,27.41
2022-08-25T23:17:11.518Z,27.41
2022-08-25T23:19:39.037Z,27.39
2022-08-25T23:22:12.613Z,27.36
2022-08-25T23:24:48.985Z,27.27
2022-08-25T23:27:19.835Z,26.77
2022-08-25T23:29:48.996Z,27.03
2022-08-25T23:32:17.848Z,26.34
2022-08-25T23:34:46.773Z,26.45
2022-08-25T23:37:14.365Z,27.20
2022-08-25T23:39:41.628Z,27.19
2022-08-25T23:42:08.885Z,27.14
2022-08-25T23:44:36.786Z,27.09
2022-08-25T23:47:06.753Z,27.04
2022-08-25T23:49:33.757Z,26.86
2022-08-25T23:52:01.248Z,27.01
2022-08-25T23:54:30.996Z,26.51
2022-08-25T23:56:58.474Z,27.11
2022-08-25T23:59:25.420Z,27.04
